sensor_id;sensor_type;location;lat;lon;timestamp;temperature;humidity
3310;DHT22;1667;53.238;10.394;2023-02-28T00:02:37;4.50;99.90
3310;DHT22;1667;53.238;10.394;2023-02-28T00:07:36;4.50;99.90
3310;DHT22;1667;53.238;10.394;2023-02-28T00:12:35;4.50;99.90
3310;DHT22;1667;53.238;10.394;2023-02-28T00:17:34;4.50;99.90
3310;DHT22;1667;53.238;10.394;2023-02-28T00:22:35;4.60;99.90
3310;DHT22;1667;53.238;10.394;2023-02-28T00:27:33;4.30;99.90
3310;DHT22;1667;53.238;10.394;2023-02-28T00:32:33;4.50;99.90
3310;DHT22;1667;53.238;10.394;2023-02-28T00:37:32;4.50;99.90
3310;DHT22;1667;53.238;10.394;2023-02-28T00:42:32;4.20;99.90
3310;DHT22;1667;53.238;10.394;2023-02-28T00:47:31;4.20;99.90
3310;DHT22;1667;53.238;10.394;2023-02-28T00:52:30;4.50;99.90
3310;DHT22;1667;53.238;10.394;2023-02-28T00:57:29;4.10;99.90
3310;DHT22;1667;53.238;10.394;2023-02-28T01:02:28;4.10;99.90
3310;DHT22;1667;53.238;10.394;2023-02-28T01:07:27;4.10;99.90
3310;DHT22;1667;53.238;10.394;2023-02-28T01:12:25;4.20;99.90
3310;DHT22;1667;53.238;10.394;2023-02-28T01:17:26;4.00;99.90
3310;DHT22;1667;53.238;10.394;2023-02-28T01:22:26;4.00;99.90
3310;DHT22;1667;53.238;10.394;2023-02-28T01:27:25;4.00;99.90
3310;DHT22;1667;53.238;10.394;2023-02-28T01:32:24;4.00;99.90
3310;DHT22;1667;53.238;10.394;2023-02-28T01:37:22;4.00;99.90
3310;DHT22;1667;53.238;10.394;2023-02-28T01:42:22;4.00;99.90
3310;DHT22;1667;53.238;10.394;2023-02-28T01:47:21;3.90;99.90
3310;DHT22;1667;53.238;10.394;2023-02-28T01:52:21;3.90;99.90
3310;DHT22;1667;53.238;10.394;2023-02-28T01:57:29;3.90;99.90
3310;DHT22;1667;53.238;10.394;2023-02-28T02:02:36;3.80;99.90
3310;DHT22;1667;53.238;10.394;2023-02-28T02:07:37;3.80;99.90
3310;DHT22;1667;53.238;10.394;2023-02-28T02:12:56;3.80;99.90
3310;DHT22;1667;53.238;10.394;2023-02-28T02:17:59;4.00;99.90
3310;DHT22;1667;53.238;10.394;2023-02-28T02:29:01;3.60;99.90
3310;DHT22;1667;53.238;10.394;2023-02-28T02:39:41;3.50;99.90
3310;DHT22;1667;53.238;10.394;2023-02-28T02:44:47;3.80;99.90
3310;DHT22;1667;53.238;10.394;2023-02-28T02:49:50;3.50;99.90
3310;DHT22;1667;53.238;10.394;2023-02-28T02:54:50;3.80;99.90
3310;DHT22;1667;53.238;10.394;2023-02-28T03:06:42;3.40;99.90
3310;DHT22;1667;53.238;10.394;2023-02-28T03:11:42;3.50;99.90
3310;DHT22;1667;53.238;10.394;2023-02-28T03:22:15;3.20;99.90
3310;DHT22;1667;53.238;10.394;2023-02-28T03:27:23;3.20;99.90
3310;DHT22;1667;53.238;10.394;2023-02-28T03:32:27;3.20;99.90
3310;DHT22;1667;53.238;10.394;2023-02-28T03:37:29;3.10;99.90
3310;DHT22;1667;53.238;10.394;2023-02-28T03:42:31;3.40;99.90
3310;DHT22;1667;53.238;10.394;2023-02-28T03:47:34;3.40;99.90
3310;DHT22;1667;53.238;10.394;2023-02-28T03:52:38;3.30;99.90
3310;DHT22;1667;53.238;10.394;2023-02-28T03:57:41;3.20;99.90
3310;DHT22;1667;53.238;10.394;2023-02-28T04:02:41;3.00;99.90
3310;DHT22;1667;53.238;10.394;2023-02-28T04:07:41;2.90;99.90
3310;DHT22;1667;53.238;10.394;2023-02-28T04:12:40;2.90;99.90
3310;DHT22;1667;53.238;10.394;2023-02-28T04:17:38;2.90;99.90
3310;DHT22;1667;53.238;10.394;2023-02-28T04:22:37;2.90;99.90
3310;DHT22;1667;53.238;10.394;2023-02-28T04:27:37;2.80;99.90
3310;DHT22;1667;53.238;10.394;2023-02-28T04:32:35;2.80;99.90
3310;DHT22;1667;53.238;10.394;2023-02-28T04:37:34;3.00;99.90
3310;DHT22;1667;53.238;10.394;2023-02-28T04:42:34;2.70;99.90
3310;DHT22;1667;53.238;10.394;2023-02-28T04:47:34;2.70;99.90
3310;DHT22;1667;53.238;10.394;2023-02-28T04:52:33;2.70;99.90
3310;DHT22;1667;53.238;10.394;2023-02-28T04:57:31;2.60;99.90
3310;DHT22;1667;53.238;10.394;2023-02-28T05:02:30;2.60;99.90
3310;DHT22;1667;53.238;10.394;2023-02-28T05:07:30;2.50;99.90
3310;DHT22;1667;53.238;10.394;2023-02-28T05:12:28;2.50;99.90
3310;DHT22;1667;53.238;10.394;2023-02-28T05:17:27;2.50;99.90
3310;DHT22;1667;53.238;10.394;2023-02-28T05:22:25;2.50;99.90
3310;DHT22;1667;53.238;10.394;2023-02-28T05:27:25;2.50;99.90
3310;DHT22;1667;53.238;10.394;2023-02-28T05:32:25;2.70;99.90
3310;DHT22;1667;53.238;10.394;2023-02-28T05:37:24;2.40;99.90
3310;DHT22;1667;53.238;10.394;2023-02-28T05:42:22;2.40;99.90
3310;DHT22;1667;53.238;10.394;2023-02-28T05:47:22;2.40;99.90
3310;DHT22;1667;53.238;10.394;2023-02-28T05:52:20;2.30;99.90
3310;DHT22;1667;53.238;10.394;2023-02-28T05:57:19;2.60;99.90
3310;DHT22;1667;53.238;10.394;2023-02-28T06:02:22;2.30;99.90
3310;DHT22;1667;53.238;10.394;2023-02-28T06:07:20;2.20;99.90
3310;DHT22;1667;53.238;10.394;2023-02-28T06:12:19;2.20;99.90
3310;DHT22;1667;53.238;10.394;2023-02-28T06:17:17;2.30;99.90
3310;DHT22;1667;53.238;10.394;2023-02-28T06:22:17;2.10;99.90
3310;DHT22;1667;53.238;10.394;2023-02-28T06:27:16;2.10;99.90
3310;DHT22;1667;53.238;10.394;2023-02-28T06:32:14;2.40;99.90
3310;DHT22;1667;53.238;10.394;2023-02-28T06:37:13;2.30;99.90
3310;DHT22;1667;53.238;10.394;2023-02-28T06:42:13;2.10;99.90
3310;DHT22;1667;53.238;10.394;2023-02-28T06:47:12;2.10;99.90
3310;DHT22;1667;53.238;10.394;2023-02-28T06:52:10;2.10;99.90
3310;DHT22;1667;53.238;10.394;2023-02-28T06:57:09;2.00;99.90
3310;DHT22;1667;53.238;10.394;2023-02-28T07:02:09;2.00;99.90
3310;DHT22;1667;53.238;10.394;2023-02-28T07:07:07;2.10;99.90
3310;DHT22;1667;53.238;10.394;2023-02-28T07:12:06;2.50;99.90
3310;DHT22;1667;53.238;10.394;2023-02-28T07:17:06;2.20;99.90
3310;DHT22;1667;53.238;10.394;2023-02-28T07:22:07;2.30;99.90
3310;DHT22;1667;53.238;10.394;2023-02-28T07:27:05;2.40;99.90
3310;DHT22;1667;53.238;10.394;2023-02-28T07:32:04;2.70;99.90
3310;DHT22;1667;53.238;10.394;2023-02-28T07:37:03;2.60;99.90
3310;DHT22;1667;53.238;10.394;2023-02-28T07:42:06;2.80;99.90
3310;DHT22;1667;53.238;10.394;2023-02-28T07:47:09;2.80;99.90
3310;DHT22;1667;53.238;10.394;2023-02-28T07:52:08;3.10;99.90
3310;DHT22;1667;53.238;10.394;2023-02-28T07:57:09;3.30;99.90
3310;DHT22;1667;53.238;10.394;2023-02-28T08:02:10;3.00;99.90
3310;DHT22;1667;53.238;10.394;2023-02-28T08:07:12;3.10;99.90
3310;DHT22;1667;53.238;10.394;2023-02-28T08:12:12;3.20;99.90
3310;DHT22;1667;53.238;10.394;2023-02-28T08:17:11;3.50;99.90
3310;DHT22;1667;53.238;10.394;2023-02-28T08:22:10;3.30;99.90
3310;DHT22;1667;53.238;10.394;2023-02-28T08:27:08;3.40;99.90
3310;DHT22;1667;53.238;10.394;2023-02-28T08:32:07;3.60;99.90
3310;DHT22;1667;53.238;10.394;2023-02-28T08:37:25;3.70;99.90
3310;DHT22;1667;53.238;10.394;2023-02-28T08:42:23;3.80;99.90
3310;DHT22;1667;53.238;10.394;2023-02-28T08:47:23;4.30;99.90
3310;DHT22;1667;53.238;10.394;2023-02-28T08:52:22;4.10;99.90
3310;DHT22;1667;53.238;10.394;2023-02-28T08:57:20;4.20;99.90
3310;DHT22;1667;53.238;10.394;2023-02-28T09:02:19;4.50;99.90
3310;DHT22;1667;53.238;10.394;2023-02-28T09:07:19;4.70;99.90
3310;DHT22;1667;53.238;10.394;2023-02-28T09:12:18;4.90;99.90
3310;DHT22;1667;53.238;10.394;2023-02-28T09:17:17;5.00;99.90
3310;DHT22;1667;53.238;10.394;2023-02-28T09:22:16;5.40;99.90
3310;DHT22;1667;53.238;10.394;2023-02-28T09:27:15;5.20;99.90
3310;DHT22;1667;53.238;10.394;2023-02-28T09:32:14;5.40;99.90
3310;DHT22;1667;53.238;10.394;2023-02-28T09:37:14;5.60;99.90
3310;DHT22;1667;53.238;10.394;2023-02-28T09:42:21;5.60;99.90
3310;DHT22;1667;53.238;10.394;2023-02-28T09:47:27;6.10;99.90
3310;DHT22;1667;53.238;10.394;2023-02-28T09:59:30;6.40;99.90
3310;DHT22;1667;53.238;10.394;2023-02-28T10:04:46;6.50;99.90
3310;DHT22;1667;53.238;10.394;2023-02-28T10:09:53;6.60;99.90
3310;DHT22;1667;53.238;10.394;2023-02-28T10:14:55;6.70;99.90
3310;DHT22;1667;53.238;10.394;2023-02-28T10:20:00;7.30;99.90
3310;DHT22;1667;53.238;10.394;2023-02-28T10:25:16;7.50;99.90
3310;DHT22;1667;53.238;10.394;2023-02-28T10:30:16;7.60;99.90
3310;DHT22;1667;53.238;10.394;2023-02-28T10:35:17;7.60;99.90
3310;DHT22;1667;53.238;10.394;2023-02-28T10:40:28;7.60;99.90
3310;DHT22;1667;53.238;10.394;2023-02-28T10:45:30;7.70;99.90
3310;DHT22;1667;53.238;10.394;2023-02-28T10:50:33;7.70;99.90
3310;DHT22;1667;53.238;10.394;2023-02-28T10:55:35;8.10;99.90
3310;DHT22;1667;53.238;10.394;2023-02-28T11:00:36;8.20;99.90
3310;DHT22;1667;53.238;10.394;2023-02-28T11:05:36;8.50;99.90
3310;DHT22;1667;53.238;10.394;2023-02-28T11:10:34;8.70;99.90
3310;DHT22;1667;53.238;10.394;2023-02-28T11:15:35;8.80;99.90
3310;DHT22;1667;53.238;10.394;2023-02-28T11:20:34;8.90;99.90
3310;DHT22;1667;53.238;10.394;2023-02-28T11:25:34;9.30;99.90
3310;DHT22;1667;53.238;10.394;2023-02-28T11:30:38;9.40;99.90
3310;DHT22;1667;53.238;10.394;2023-02-28T11:35:39;9.70;99.90
3310;DHT22;1667;53.238;10.394;2023-02-28T11:40:43;9.90;98.90
3310;DHT22;1667;53.238;10.394;2023-02-28T11:46:01;10.00;99.90
3310;DHT22;1667;53.238;10.394;2023-02-28T11:51:13;10.10;99.90
3310;DHT22;1667;53.238;10.394;2023-02-28T11:56:18;10.10;99.90
3310;DHT22;1667;53.238;10.394;2023-02-28T12:01:34;10.20;98.00
3310;DHT22;1667;53.238;10.394;2023-02-28T12:06:43;10.20;97.70
3310;DHT22;1667;53.238;10.394;2023-02-28T12:11:51;10.10;99.90
3310;DHT22;1667;53.238;10.394;2023-02-28T12:17:01;10.10;99.90
3310;DHT22;1667;53.238;10.394;2023-02-28T12:27:38;10.00;99.90
3310;DHT22;1667;53.238;10.394;2023-02-28T12:32:42;10.00;99.90
3310;DHT22;1667;53.238;10.394;2023-02-28T12:37:44;9.80;99.90
3310;DHT22;1667;53.238;10.394;2023-02-28T12:42:48;9.70;99.90
3310;DHT22;1667;53.238;10.394;2023-02-28T12:47:54;9.70;99.90
3310;DHT22;1667;53.238;10.394;2023-02-28T12:52:58;9.60;99.90
3310;DHT22;1667;53.238;10.394;2023-02-28T12:58:05;9.30;99.90
3310;DHT22;1667;53.238;10.394;2023-02-28T13:03:31;8.90;99.90
3310;DHT22;1667;53.238;10.394;2023-02-28T13:08:52;8.80;99.90
3310;DHT22;1667;53.238;10.394;2023-02-28T13:14:01;9.00;99.90
3310;DHT22;1667;53.238;10.394;2023-02-28T13:19:11;8.90;99.90
3310;DHT22;1667;53.238;10.394;2023-02-28T13:24:11;9.00;99.90
3310;DHT22;1667;53.238;10.394;2023-02-28T13:29:33;9.00;99.90
3310;DHT22;1667;53.238;10.394;2023-02-28T13:34:33;8.70;99.90
3310;DHT22;1667;53.238;10.394;2023-02-28T13:39:48;8.80;99.90
3310;DHT22;1667;53.238;10.394;2023-02-28T13:45:24;8.90;99.90
3310;DHT22;1667;53.238;10.394;2023-02-28T13:50:28;8.50;99.90
3310;DHT22;1667;53.238;10.394;2023-02-28T13:55:30;8.50;99.90
3310;DHT22;1667;53.238;10.394;2023-02-28T14:00:48;8.90;99.90
3310;DHT22;1667;53.238;10.394;2023-02-28T14:06:08;8.50;99.90
3310;DHT22;1667;53.238;10.394;2023-02-28T14:11:25;8.10;99.90
3310;DHT22;1667;53.238;10.394;2023-02-28T14:16:26;8.00;99.90
3310;DHT22;1667;53.238;10.394;2023-02-28T14:21:29;7.90;99.90
3310;DHT22;1667;53.238;10.394;2023-02-28T14:26:37;8.40;99.90
3310;DHT22;1667;53.238;10.394;2023-02-28T14:31:46;8.20;99.90
3310;DHT22;1667;53.238;10.394;2023-02-28T14:36:50;8.20;99.90
3310;DHT22;1667;53.238;10.394;2023-02-28T14:41:50;8.20;99.90
3310;DHT22;1667;53.238;10.394;2023-02-28T14:46:53;7.90;99.90
3310;DHT22;1667;53.238;10.394;2023-02-28T14:52:03;8.00;99.90
3310;DHT22;1667;53.238;10.394;2023-02-28T14:57:18;8.00;99.90
3310;DHT22;1667;53.238;10.394;2023-02-28T15:02:22;7.70;99.90
3310;DHT22;1667;53.238;10.394;2023-02-28T15:07:20;7.30;99.90
3310;DHT22;1667;53.238;10.394;2023-02-28T15:12:25;7.40;99.90
3310;DHT22;1667;53.238;10.394;2023-02-28T15:17:26;7.50;99.90
3310;DHT22;1667;53.238;10.394;2023-02-28T15:22:29;7.70;99.90
3310;DHT22;1667;53.238;10.394;2023-02-28T15:27:32;7.70;99.90
3310;DHT22;1667;53.238;10.394;2023-02-28T15:32:35;7.50;99.90
3310;DHT22;1667;53.238;10.394;2023-02-28T15:37:39;7.30;99.90
3310;DHT22;1667;53.238;10.394;2023-02-28T15:42:38;7.60;99.90
3310;DHT22;1667;53.238;10.394;2023-02-28T15:47:39;7.40;99.90
3310;DHT22;1667;53.238;10.394;2023-02-28T15:52:39;7.40;99.90
3310;DHT22;1667;53.238;10.394;2023-02-28T15:57:40;7.50;99.90
3310;DHT22;1667;53.238;10.394;2023-02-28T16:02:40;7.50;99.90
3310;DHT22;1667;53.238;10.394;2023-02-28T16:07:41;7.70;99.90
3310;DHT22;1667;53.238;10.394;2023-02-28T16:17:41;7.80;99.90
3310;DHT22;1667;53.238;10.394;2023-02-28T16:22:40;7.90;99.90
3310;DHT22;1667;53.238;10.394;2023-02-28T16:27:39;7.90;99.90
3310;DHT22;1667;53.238;10.394;2023-02-28T16:32:38;7.90;99.90
3310;DHT22;1667;53.238;10.394;2023-02-28T16:37:38;8.00;99.90
3310;DHT22;1667;53.238;10.394;2023-02-28T16:42:37;8.00;99.90
3310;DHT22;1667;53.238;10.394;2023-02-28T16:47:37;8.00;99.90
3310;DHT22;1667;53.238;10.394;2023-02-28T16:52:35;8.00;99.90
3310;DHT22;1667;53.238;10.394;2023-02-28T16:57:35;8.00;99.90
3310;DHT22;1667;53.238;10.394;2023-02-28T17:02:34;8.00;99.90
3310;DHT22;1667;53.238;10.394;2023-02-28T17:07:33;7.90;99.90
3310;DHT22;1667;53.238;10.394;2023-02-28T17:12:32;7.90;99.90
3310;DHT22;1667;53.238;10.394;2023-02-28T17:17:32;7.80;99.90
3310;DHT22;1667;53.238;10.394;2023-02-28T17:22:30;7.80;99.90
3310;DHT22;1667;53.238;10.394;2023-02-28T17:27:28;7.80;99.90
3310;DHT22;1667;53.238;10.394;2023-02-28T17:32:27;7.70;99.90
3310;DHT22;1667;53.238;10.394;2023-02-28T17:37:27;7.70;99.90
3310;DHT22;1667;53.238;10.394;2023-02-28T17:42:26;7.60;99.90
3310;DHT22;1667;53.238;10.394;2023-02-28T17:47:24;7.50;99.90
3310;DHT22;1667;53.238;10.394;2023-02-28T17:52:23;7.40;99.90
3310;DHT22;1667;53.238;10.394;2023-02-28T17:57:22;7.40;99.90
3310;DHT22;1667;53.238;10.394;2023-02-28T18:02:21;7.40;99.90
3310;DHT22;1667;53.238;10.394;2023-02-28T18:07:21;7.30;99.90
3310;DHT22;1667;53.238;10.394;2023-02-28T18:12:23;7.20;99.90
3310;DHT22;1667;53.238;10.394;2023-02-28T18:17:22;7.20;99.90
3310;DHT22;1667;53.238;10.394;2023-02-28T18:22:21;7.10;99.90
3310;DHT22;1667;53.238;10.394;2023-02-28T18:27:19;7.00;99.90
3310;DHT22;1667;53.238;10.394;2023-02-28T18:32:19;6.90;99.90
3310;DHT22;1667;53.238;10.394;2023-02-28T18:37:18;6.90;99.90
3310;DHT22;1667;53.238;10.394;2023-02-28T18:42:17;6.80;99.90
3310;DHT22;1667;53.238;10.394;2023-02-28T18:47:15;6.70;99.90
3310;DHT22;1667;53.238;10.394;2023-02-28T18:52:15;7.00;99.90
3310;DHT22;1667;53.238;10.394;2023-02-28T18:57:14;6.70;99.90
3310;DHT22;1667;53.238;10.394;2023-02-28T19:02:12;6.90;99.90
3310;DHT22;1667;53.238;10.394;2023-02-28T19:07:11;6.60;99.90
3310;DHT22;1667;53.238;10.394;2023-02-28T19:12:12;6.50;99.90
3310;DHT22;1667;53.238;10.394;2023-02-28T19:17:13;6.40;99.90
3310;DHT22;1667;53.238;10.394;2023-02-28T19:22:12;6.50;99.90
3310;DHT22;1667;53.238;10.394;2023-02-28T19:27:12;6.30;99.90
3310;DHT22;1667;53.238;10.394;2023-02-28T19:32:10;6.30;99.90
3310;DHT22;1667;53.238;10.394;2023-02-28T19:37:09;6.30;99.90
3310;DHT22;1667;53.238;10.394;2023-02-28T19:42:08;6.20;99.90
3310;DHT22;1667;53.238;10.394;2023-02-28T19:47:08;6.20;99.90
3310;DHT22;1667;53.238;10.394;2023-02-28T19:52:06;6.10;99.90
3310;DHT22;1667;53.238;10.394;2023-02-28T19:57:11;6.10;99.90
3310;DHT22;1667;53.238;10.394;2023-02-28T20:02:13;6.00;99.90
3310;DHT22;1667;53.238;10.394;2023-02-28T20:07:12;6.00;99.90
3310;DHT22;1667;53.238;10.394;2023-02-28T20:12:10;6.00;99.90
3310;DHT22;1667;53.238;10.394;2023-02-28T20:17:22;6.10;99.90
3310;DHT22;1667;53.238;10.394;2023-02-28T20:22:20;6.10;99.90
3310;DHT22;1667;53.238;10.394;2023-02-28T20:27:19;5.80;99.90
3310;DHT22;1667;53.238;10.394;2023-02-28T20:32:17;6.00;99.90
3310;DHT22;1667;53.238;10.394;2023-02-28T20:37:17;5.70;99.90
3310;DHT22;1667;53.238;10.394;2023-02-28T20:42:16;5.50;99.90
3310;DHT22;1667;53.238;10.394;2023-02-28T20:47:15;5.40;99.90
3310;DHT22;1667;53.238;10.394;2023-02-28T20:52:13;5.40;99.90
3310;DHT22;1667;53.238;10.394;2023-02-28T20:57:13;5.50;99.90
3310;DHT22;1667;53.238;10.394;2023-02-28T21:02:14;5.50;99.90
3310;DHT22;1667;53.238;10.394;2023-02-28T21:07:13;5.60;99.90
3310;DHT22;1667;53.238;10.394;2023-02-28T21:12:13;5.70;99.90
3310;DHT22;1667;53.238;10.394;2023-02-28T21:17:12;5.30;99.90
3310;DHT22;1667;53.238;10.394;2023-02-28T21:22:10;5.30;99.90
3310;DHT22;1667;53.238;10.394;2023-02-28T21:27:10;5.40;99.90
3310;DHT22;1667;53.238;10.394;2023-02-28T21:32:10;5.20;99.90
3310;DHT22;1667;53.238;10.394;2023-02-28T21:37:09;5.20;99.90
3310;DHT22;1667;53.238;10.394;2023-02-28T21:42:07;5.50;99.90
3310;DHT22;1667;53.238;10.394;2023-02-28T21:47:06;5.10;99.90
3310;DHT22;1667;53.238;10.394;2023-02-28T21:52:06;5.10;99.90
3310;DHT22;1667;53.238;10.394;2023-02-28T21:57:04;5.00;99.90
3310;DHT22;1667;53.238;10.394;2023-02-28T22:02:03;4.90;99.90
3310;DHT22;1667;53.238;10.394;2023-02-28T22:07:02;4.90;99.90
3310;DHT22;1667;53.238;10.394;2023-02-28T22:12:02;5.00;99.90
3310;DHT22;1667;53.238;10.394;2023-02-28T22:17:02;4.80;99.90
3310;DHT22;1667;53.238;10.394;2023-02-28T22:22:00;4.70;99.90
3310;DHT22;1667;53.238;10.394;2023-02-28T22:26:58;4.70;99.90
3310;DHT22;1667;53.238;10.394;2023-02-28T22:31:58;4.60;99.90
3310;DHT22;1667;53.238;10.394;2023-02-28T22:36:57;4.60;99.90
3310;DHT22;1667;53.238;10.394;2023-02-28T22:41:56;4.60;99.90
3310;DHT22;1667;53.238;10.394;2023-02-28T22:46:54;4.50;99.90
3310;DHT22;1667;53.238;10.394;2023-02-28T22:51:54;4.50;99.90
3310;DHT22;1667;53.238;10.394;2023-02-28T22:56:52;4.50;99.90
3310;DHT22;1667;53.238;10.394;2023-02-28T23:01:51;4.50;99.90
3310;DHT22;1667;53.238;10.394;2023-02-28T23:06:49;4.50;99.90
3310;DHT22;1667;53.238;10.394;2023-02-28T23:11:50;4.40;99.90
3310;DHT22;1667;53.238;10.394;2023-02-28T23:16:50;4.40;99.90
3310;DHT22;1667;53.238;10.394;2023-02-28T23:21:50;4.40;99.90
3310;DHT22;1667;53.238;10.394;2023-02-28T23:26:51;4.30;99.90
3310;DHT22;1667;53.238;10.394;2023-02-28T23:31:50;4.20;99.90
3310;DHT22;1667;53.238;10.394;2023-02-28T23:36:49;4.20;99.90
3310;DHT22;1667;53.238;10.394;2023-02-28T23:41:49;4.10;99.90
3310;DHT22;1667;53.238;10.394;2023-02-28T23:46:50;4.00;99.90
3310;DHT22;1667;53.238;10.394;2023-02-28T23:51:50;3.90;99.90
3310;DHT22;1667;53.238;10.394;2023-02-28T23:56:51;3.90;99.90
